Time;durP1;ratioP1;P1;durP2;ratioP2;P2;SDS_P1;SDS_P2;PMS_P1;PMS_P2;Temp;Humidity;BMP_temperature;BMP_pressure;BME280_temperature;BME280_humidity;BME280_pressure;Samples;Min_cycle;Max_cycle;Signal;HPM_P1;HPM_P2
2022/08/21 00:00:48;;;;;;;26.63;14.83;;;23.80;58.50;;;;;;5052325;28;20787;-41
2022/08/21 00:03:15;;;;;;;23.03;15.37;;;23.70;58.40;;;;;;5052394;28;20412;-40
2022/08/21 00:05:49;;;;;;;23.60;15.50;;;23.70;58.40;;;;;;5052063;28;20450;-41
2022/08/21 00:08:19;;;;;;;24.97;17.10;;;23.70;58.50;;;;;;5052297;28;20545;-41
2022/08/21 00:10:46;;;;;;;23.87;15.50;;;23.70;58.80;;;;;;5052206;28;20412;-42
2022/08/21 00:13:13;;;;;;;20.67;15.10;;;23.70;58.70;;;;;;5052088;28;20407;-42
2022/08/21 00:15:40;;;;;;;23.03;15.20;;;23.70;58.70;;;;;;5051888;28;20432;-41
2022/08/21 00:18:07;;;;;;;20.33;14.63;;;23.70;58.60;;;;;;5052404;28;20411;-42
2022/08/21 00:20:34;;;;;;;27.50;16.40;;;23.70;58.50;;;;;;5052176;28;20403;-42
2022/08/21 00:23:00;;;;;;;23.37;14.47;;;23.80;58.50;;;;;;5052147;28;20412;-42
2022/08/21 00:25:27;;;;;;;22.80;15.47;;;23.70;58.90;;;;;;5052019;28;20432;-43
2022/08/21 00:27:54;;;;;;;28.23;17.30;;;23.70;58.70;;;;;;5051803;28;20483;-42
2022/08/21 00:30:22;;;;;;;23.70;16.73;;;23.70;58.80;;;;;;5052035;28;20887;-43
2022/08/21 00:32:47;;;;;;;25.00;16.00;;;23.70;58.80;;;;;;5052294;28;21000;-42
2022/08/21 00:35:17;;;;;;;22.30;14.90;;;23.70;58.80;;;;;;5051860;28;21275;-41
2022/08/21 00:37:42;;;;;;;24.10;14.70;;;23.70;58.90;;;;;;5051718;28;20179;-42
2022/08/21 00:40:13;;;;;;;19.27;14.57;;;23.70;58.90;;;;;;5051868;28;20403;-41
2022/08/21 00:42:39;;;;;;;21.13;14.07;;;23.70;58.90;;;;;;5051885;28;20863;-41
2022/08/21 00:45:06;;;;;;;19.43;14.70;;;23.70;58.80;;;;;;5052458;28;20461;-41
2022/08/21 00:47:32;;;;;;;24.33;16.57;;;23.70;58.90;;;;;;5055706;28;20543;-43
2022/08/21 00:49:58;;;;;;;22.17;14.13;;;23.70;58.80;;;;;;5055974;28;20498;-41
2022/08/21 00:52:29;;;;;;;21.07;13.83;;;23.70;58.90;;;;;;5055970;28;20399;-43
2022/08/21 00:54:57;;;;;;;22.90;15.00;;;23.70;58.90;;;;;;5055846;28;20923;-41
2022/08/21 00:57:30;;;;;;;24.63;15.47;;;23.70;59.00;;;;;;5055606;28;20415;-41
2022/08/21 00:59:59;;;;;;;19.00;14.10;;;23.70;58.90;;;;;;5055806;28;20461;-43
2022/08/21 01:02:25;;;;;;;22.20;14.83;;;23.70;58.90;;;;;;5055932;28;20529;-42
2022/08/21 01:04:51;;;;;;;25.43;16.00;;;23.70;58.90;;;;;;5055880;28;21027;-43
2022/08/21 01:07:18;;;;;;;23.83;15.60;;;23.70;58.80;;;;;;5055369;28;20455;-41
2022/08/21 01:09:46;;;;;;;24.53;16.87;;;23.70;58.80;;;;;;5055718;28;20410;-43
2022/08/21 01:12:13;;;;;;;28.33;19.30;;;23.70;58.60;;;;;;5055568;28;20438;-42
2022/08/21 01:14:42;;;;;;;27.70;19.60;;;23.80;58.60;;;;;;5055437;28;20426;-42
2022/08/21 01:17:11;;;;;;;24.40;14.07;;;23.70;58.50;;;;;;5055281;28;20412;-42
2022/08/21 01:19:37;;;;;;;17.50;13.10;;;23.70;58.40;;;;;;5055424;28;20444;-40
2022/08/21 01:22:03;;;;;;;18.30;13.77;;;23.70;58.40;;;;;;5055333;28;20477;-41
2022/08/21 01:24:31;;;;;;;19.57;14.70;;;23.70;58.30;;;;;;5055208;28;20407;-43
2022/08/21 01:26:59;;;;;;;14.80;10.00;;;23.60;58.20;;;;;;5055237;28;20811;-41
2022/08/21 01:29:37;;;;;;;15.97;10.50;;;23.60;58.00;;;;;;5055210;28;20906;-42
2022/08/21 01:32:12;;;;;;;13.87;10.13;;;23.60;57.90;;;;;;5055253;28;20399;-41
2022/08/21 01:34:42;;;;;;;11.03;8.70;;;23.50;57.90;;;;;;5054990;28;20458;-41
2022/08/21 01:37:09;;;;;;;11.20;8.37;;;23.50;58.00;;;;;;5054957;28;20415;-40
2022/08/21 01:39:35;;;;;;;10.43;8.00;;;23.40;57.90;;;;;;5055004;28;20502;-42
2022/08/21 01:42:01;;;;;;;13.70;8.77;;;23.40;58.00;;;;;;5054999;28;20884;-42
2022/08/21 01:44:28;;;;;;;14.60;7.90;;;23.40;57.90;;;;;;5054904;28;20412;-40
2022/08/21 01:46:54;;;;;;;10.50;7.90;;;23.40;57.90;;;;;;5054551;28;20486;-42
2022/08/21 01:49:20;;;;;;;12.80;7.80;;;23.40;57.90;;;;;;5054813;28;20490;-41
2022/08/21 01:51:46;;;;;;;11.30;8.37;;;23.40;58.00;;;;;;5054811;28;20431;-43
2022/08/21 01:54:11;;;;;;;11.70;8.03;;;23.30;58.10;;;;;;5054770;28;20629;-41
2022/08/21 01:56:40;;;;;;;13.60;8.43;;;23.30;58.20;;;;;;5053752;28;20193;-41
2022/08/21 01:59:06;;;;;;;10.03;8.03;;;23.30;58.10;;;;;;5054864;28;20228;-41
2022/08/21 02:01:32;;;;;;;11.37;8.13;;;23.20;58.10;;;;;;5054523;28;20502;-41
2022/08/21 02:03:59;;;;;;;9.90;7.20;;;23.20;58.10;;;;;;5054847;28;20491;-42
2022/08/21 02:06:25;;;;;;;10.50;7.80;;;23.20;58.30;;;;;;5054556;28;20220;-41
2022/08/21 02:08:52;;;;;;;10.77;7.40;;;23.30;58.30;;;;;;5054419;28;20448;-42
2022/08/21 02:11:18;;;;;;;13.70;7.80;;;23.30;58.20;;;;;;5054487;28;20400;-41
2022/08/21 02:13:44;;;;;;;10.73;7.53;;;23.30;58.40;;;;;;5054490;28;20408;-41
2022/08/21 02:16:10;;;;;;;10.53;7.77;;;23.30;58.20;;;;;;5054063;28;20468;-41
2022/08/21 02:18:36;;;;;;;10.27;6.43;;;23.30;58.20;;;;;;5054336;28;20403;-41
2022/08/21 02:21:03;;;;;;;11.20;7.03;;;23.30;58.30;;;;;;5054293;28;20416;-42
2022/08/21 02:23:29;;;;;;;9.90;7.50;;;23.30;58.20;;;;;;5054199;28;20506;-43
2022/08/21 02:25:58;;;;;;;9.30;6.60;;;23.30;58.30;;;;;;5053912;28;20463;-42
2022/08/21 02:28:25;;;;;;;7.40;5.80;;;23.30;58.30;;;;;;5054291;28;20258;-42
2022/08/21 02:30:51;;;;;;;9.67;6.33;;;23.30;58.30;;;;;;5054027;28;20416;-41
2022/08/21 02:33:18;;;;;;;9.10;6.40;;;23.30;58.30;;;;;;5054304;28;20407;-43
2022/08/21 02:35:46;;;;;;;8.90;6.60;;;23.30;58.30;;;;;;5053686;28;20451;-41
2022/08/21 02:38:16;;;;;;;8.77;6.10;;;23.30;58.20;;;;;;5054233;28;20412;-41
2022/08/21 02:40:45;;;;;;;8.27;6.37;;;23.30;58.20;;;;;;5053887;28;20407;-43
2022/08/21 02:43:11;;;;;;;9.77;7.47;;;23.30;58.20;;;;;;5053881;28;20917;-42
2022/08/21 02:45:38;;;;;;;9.90;6.10;;;23.30;58.20;;;;;;5053815;28;20522;-43
2022/08/21 02:48:10;;;;;;;10.90;6.83;;;23.30;58.20;;;;;;5053840;28;20470;-42
2022/08/21 02:50:45;;;;;;;9.77;6.97;;;23.30;58.20;;;;;;5053785;28;20404;-41
2022/08/21 02:53:16;;;;;;;7.57;5.40;;;23.30;58.20;;;;;;5053684;28;20411;-42
2022/08/21 02:55:47;;;;;;;8.80;6.50;;;23.30;58.30;;;;;;5053283;28;20431;-42
2022/08/21 02:58:14;;;;;;;10.23;7.93;;;23.20;58.20;;;;;;5053650;28;20400;-42
2022/08/21 03:00:41;;;;;;;10.53;7.27;;;23.30;58.20;;;;;;5053561;28;20465;-41
2022/08/21 03:03:07;;;;;;;10.10;6.10;;;23.30;58.30;;;;;;5053586;28;20850;-41
2022/08/21 03:05:34;;;;;;;10.20;6.50;;;23.20;58.10;;;;;;5053171;28;20493;-43
2022/08/21 03:08:02;;;;;;;11.87;7.90;;;23.20;58.20;;;;;;5053099;28;20534;-42
2022/08/21 03:10:30;;;;;;;10.17;7.83;;;23.20;58.20;;;;;;5053303;28;20444;-42
2022/08/21 03:12:56;;;;;;;8.50;7.43;;;23.20;58.20;;;;;;5053239;28;20469;-41
2022/08/21 03:15:23;;;;;;;9.63;6.80;;;23.20;58.20;;;;;;5053116;28;20431;-42
2022/08/21 03:17:50;;;;;;;10.87;7.40;;;23.30;58.20;;;;;;5053041;28;20177;-42
2022/08/21 03:20:18;;;;;;;9.20;6.87;;;23.30;58.30;;;;;;5053604;28;20411;-42
2022/08/21 03:22:44;;;;;;;12.10;7.60;;;23.30;58.30;;;;;;5053000;28;20400;-41
2022/08/21 03:25:10;;;;;;;10.77;6.90;;;23.30;58.30;;;;;;5052996;28;20473;-42
2022/08/21 03:27:37;;;;;;;10.03;7.50;;;23.30;58.30;;;;;;5052914;28;20481;-41
2022/08/21 03:30:05;;;;;;;10.40;6.40;;;23.20;58.30;;;;;;5053044;28;20411;-41
2022/08/21 03:32:31;;;;;;;9.13;6.70;;;23.30;58.40;;;;;;5052975;28;20495;-41
2022/08/21 03:34:57;;;;;;;9.37;7.27;;;23.30;59.00;;;;;;5052747;28;20987;-41
2022/08/21 03:37:24;;;;;;;10.83;7.10;;;23.30;58.20;;;;;;5052501;28;20525;-41
2022/08/21 03:39:50;;;;;;;11.83;8.87;;;23.30;58.20;;;;;;5053040;28;20414;-40
2022/08/21 03:42:16;;;;;;;13.40;8.73;;;23.30;58.20;;;;;;5052757;28;20950;-41
2022/08/21 03:44:42;;;;;;;19.27;8.63;;;23.10;58.20;;;;;;5052565;28;20562;-41
2022/08/21 03:47:09;;;;;;;10.47;8.00;;;23.10;58.40;;;;;;5052448;28;20458;-41
2022/08/21 03:49:35;;;;;;;10.47;7.57;;;23.10;58.50;;;;;;5052585;28;20411;-42
2022/08/21 03:52:03;;;;;;;13.50;8.23;;;23.00;58.50;;;;;;5052538;28;20396;-41
2022/08/21 03:54:29;;;;;;;12.57;8.53;;;23.00;58.60;;;;;;5052620;28;20412;-41
2022/08/21 03:56:55;;;;;;;16.03;7.30;;;23.00;58.70;;;;;;5052265;28;20469;-41
2022/08/21 03:59:20;;;;;;;11.87;8.70;;;23.00;58.70;;;;;;5052463;28;20204;-41
2022/08/21 04:01:58;;;;;;;9.40;7.80;;;23.00;58.80;;;;;;5052431;28;20973;-41
2022/08/21 04:04:26;;;;;;;12.43;10.10;;;23.00;58.60;;;;;;5052243;28;20169;-41
2022/08/21 04:06:52;;;;;;;11.53;8.40;;;23.00;58.90;;;;;;5051960;28;20399;-41
2022/08/21 04:09:18;;;;;;;14.67;10.17;;;22.90;58.90;;;;;;5052386;28;20780;-41
2022/08/21 04:11:45;;;;;;;11.83;8.10;;;22.90;59.00;;;;;;5052320;28;20173;-41
2022/08/21 04:14:13;;;;;;;12.20;9.43;;;22.90;59.00;;;;;;5052533;28;20403;-41
2022/08/21 04:16:40;;;;;;;12.03;8.43;;;22.90;59.10;;;;;;5051941;28;20422;-41
2022/08/21 04:19:07;;;;;;;13.57;9.50;;;23.00;59.20;;;;;;5052113;28;20929;-41
2022/08/21 04:21:33;;;;;;;11.77;8.77;;;23.00;59.80;;;;;;5051531;28;20411;-41
2022/08/21 04:23:59;;;;;;;15.43;9.67;;;23.00;59.10;;;;;;5052132;28;20412;-40
2022/08/21 04:26:26;;;;;;;11.03;8.17;;;23.10;59.10;;;;;;5051830;28;20422;-41
2022/08/21 04:28:52;;;;;;;11.83;9.60;;;23.10;59.00;;;;;;5052012;28;20451;-41
2022/08/21 04:31:18;;;;;;;12.13;8.27;;;23.10;59.10;;;;;;5052006;28;20400;-41
2022/08/21 04:33:44;;;;;;;11.67;8.17;;;23.10;59.10;;;;;;5051967;28;20487;-42
2022/08/21 04:36:11;;;;;;;11.00;7.73;;;23.10;59.00;;;;;;5050319;28;20582;-42
2022/08/21 04:38:37;;;;;;;11.30;8.03;;;23.10;59.10;;;;;;5052012;28;20457;-41
2022/08/21 04:41:05;;;;;;;13.40;8.80;;;23.10;59.10;;;;;;5051924;28;20408;-41
2022/08/21 04:43:30;;;;;;;12.27;8.47;;;23.10;59.00;;;;;;5051867;28;20407;-42
2022/08/21 04:45:56;;;;;;;10.07;8.17;;;23.20;59.00;;;;;;5051523;28;20438;-42
2022/08/21 04:48:26;;;;;;;10.17;7.57;;;23.20;58.90;;;;;;5051763;28;20630;-41
2022/08/21 04:50:56;;;;;;;10.73;7.73;;;23.20;58.90;;;;;;5051835;28;20510;-41
2022/08/21 04:53:28;;;;;;;11.77;8.20;;;23.20;58.90;;;;;;5051940;28;20753;-42
2022/08/21 04:55:56;;;;;;;12.20;9.83;;;23.20;59.00;;;;;;5051482;28;20519;-41
2022/08/21 04:58:26;;;;;;;12.30;9.20;;;23.20;59.10;;;;;;5051968;28;20775;-42
2022/08/21 05:00:55;;;;;;;14.87;10.60;;;23.20;59.10;;;;;;5051984;28;20767;-41
2022/08/21 05:03:22;;;;;;;12.73;9.00;;;23.20;59.10;;;;;;5051774;28;20907;-41
2022/08/21 05:05:49;;;;;;;14.00;9.20;;;23.20;59.10;;;;;;5051324;28;20428;-41
2022/08/21 05:08:20;;;;;;;12.10;9.00;;;23.20;59.00;;;;;;5051728;28;20440;-42
2022/08/21 05:10:45;;;;;;;13.80;8.50;;;23.30;59.20;;;;;;5051640;28;20388;-42
2022/08/21 05:13:13;;;;;;;11.30;8.60;;;23.30;59.10;;;;;;5051584;28;20399;-41
2022/08/21 05:15:39;;;;;;;13.37;9.47;;;23.30;59.10;;;;;;5051455;28;20431;-41
2022/08/21 05:18:06;;;;;;;14.30;9.20;;;23.30;59.10;;;;;;5051599;28;20915;-41
2022/08/21 05:20:34;;;;;;;9.30;7.33;;;23.40;59.10;;;;;;5051502;28;20410;-41
2022/08/21 05:23:00;;;;;;;10.67;8.30;;;23.40;59.10;;;;;;5051482;28;20410;-41
2022/08/21 05:25:26;;;;;;;11.03;7.97;;;23.40;59.10;;;;;;5051672;28;20432;-42
2022/08/21 05:27:53;;;;;;;11.00;8.90;;;23.40;59.10;;;;;;5051204;28;20446;-42
2022/08/21 05:30:19;;;;;;;12.73;8.27;;;23.40;59.20;;;;;;5051630;28;21088;-42
2022/08/21 05:32:46;;;;;;;12.33;9.00;;;23.40;59.10;;;;;;5053007;28;20923;-41
2022/08/21 05:35:12;;;;;;;11.60;8.07;;;23.50;59.20;;;;;;5054872;28;20795;-42
2022/08/21 05:37:37;;;;;;;11.67;7.80;;;23.50;59.30;;;;;;5055138;28;20404;-42
2022/08/21 05:40:05;;;;;;;10.50;7.70;;;23.50;59.20;;;;;;5055047;28;20404;-42
2022/08/21 05:42:31;;;;;;;10.47;8.97;;;23.50;59.30;;;;;;5055231;28;20188;-41
2022/08/21 05:44:57;;;;;;;11.50;8.73;;;23.50;59.30;;;;;;5055131;28;20423;-42
2022/08/21 05:47:23;;;;;;;13.13;8.33;;;23.50;59.10;;;;;;5054898;28;20284;-41
2022/08/21 05:49:49;;;;;;;11.50;8.40;;;23.60;59.20;;;;;;5054757;28;20652;-42
2022/08/21 05:52:22;;;;;;;12.67;8.10;;;23.60;59.10;;;;;;5054885;28;20407;-41
2022/08/21 05:54:48;;;;;;;11.97;9.23;;;23.60;59.00;;;;;;5054761;28;20213;-41
2022/08/21 05:57:14;;;;;;;10.97;8.40;;;23.60;58.90;;;;;;5054794;28;20755;-41
2022/08/21 05:59:40;;;;;;;19.37;11.57;;;23.60;59.00;;;;;;5054722;28;20465;-41
2022/08/21 06:02:08;;;;;;;16.40;12.37;;;23.60;58.90;;;;;;5054620;28;20506;-41
2022/08/21 06:04:38;;;;;;;18.07;11.30;;;23.70;58.90;;;;;;5054544;28;20205;-42
2022/08/21 06:07:04;;;;;;;19.60;14.23;;;23.70;58.90;;;;;;5054305;28;20443;-41
2022/08/21 06:09:30;;;;;;;15.43;11.67;;;23.70;59.10;;;;;;5054490;28;20411;-42
2022/08/21 06:11:55;;;;;;;17.10;11.83;;;23.70;59.10;;;;;;5054511;28;20404;-41
2022/08/21 06:14:21;;;;;;;16.57;12.30;;;23.70;59.20;;;;;;5054387;28;20161;-41
2022/08/21 06:16:47;;;;;;;15.33;10.50;;;23.80;59.30;;;;;;5052853;28;20463;-41
2022/08/21 06:19:13;;;;;;;16.17;12.23;;;23.80;59.20;;;;;;5054401;28;20184;-41
2022/08/21 06:21:39;;;;;;;18.63;13.80;;;23.80;59.20;;;;;;5054480;28;20169;-42
2022/08/21 06:24:06;;;;;;;16.50;12.40;;;23.80;59.20;;;;;;5054175;28;20177;-42
2022/08/21 06:26:33;;;;;;;15.50;12.77;;;23.90;59.30;;;;;;5054158;28;20416;-41
2022/08/21 06:28:59;;;;;;;14.93;12.00;;;23.80;59.20;;;;;;5054072;28;20490;-41
2022/08/21 06:31:27;;;;;;;21.00;12.80;;;23.80;59.20;;;;;;5054251;28;20461;-41
2022/08/21 06:33:53;;;;;;;13.57;11.07;;;23.90;59.30;;;;;;5054081;28;20749;-42
2022/08/21 06:36:20;;;;;;;16.60;11.77;;;23.90;59.30;;;;;;5053648;28;20466;-42
2022/08/21 06:38:47;;;;;;;17.47;14.47;;;23.90;59.30;;;;;;5053943;28;20408;-41
2022/08/21 06:41:13;;;;;;;17.87;12.47;;;23.90;59.30;;;;;;5054086;28;20414;-41
2022/08/21 06:43:39;;;;;;;19.43;12.37;;;23.90;59.30;;;;;;5053496;28;20986;-42
2022/08/21 06:46:05;;;;;;;15.10;11.97;;;24.00;59.30;;;;;;5053553;28;20515;-41
2022/08/21 06:48:33;;;;;;;16.57;11.83;;;24.00;59.30;;;;;;5053667;28;20217;-42
2022/08/21 06:51:00;;;;;;;14.63;11.30;;;24.00;59.10;;;;;;5053658;28;20407;-42
2022/08/21 06:53:26;;;;;;;15.50;12.70;;;24.00;59.10;;;;;;5053698;28;20410;-42
2022/08/21 06:55:52;;;;;;;15.37;10.77;;;24.00;59.00;;;;;;5053384;28;20419;-41
2022/08/21 06:58:19;;;;;;;16.40;13.20;;;24.00;59.10;;;;;;5052332;28;20420;-41
2022/08/21 07:00:47;;;;;;;17.97;12.87;;;24.00;59.10;;;;;;5053495;28;20408;-42
2022/08/21 07:03:38;;;;;;;20.03;13.57;;;24.00;59.10;;;;;;5053460;28;20411;-41
2022/08/21 07:06:05;;;;;;;15.23;11.57;;;24.00;58.90;;;;;;5045998;28;20447;-42
2022/08/21 07:08:31;;;;;;;21.33;12.70;;;24.00;59.10;;;;;;5052069;28;20459;-42
2022/08/21 07:10:59;;;;;;;14.60;11.83;;;24.00;59.10;;;;;;5053389;28;20404;-41
2022/08/21 07:13:26;;;;;;;16.87;12.97;;;24.10;59.20;;;;;;5053325;28;20419;-41
2022/08/21 07:15:52;;;;;;;16.50;12.50;;;24.10;59.10;;;;;;5052943;28;20915;-42
2022/08/21 07:18:18;;;;;;;16.50;12.67;;;24.10;59.00;;;;;;5053138;28;20403;-41
2022/08/21 07:20:45;;;;;;;14.83;11.17;;;24.10;58.90;;;;;;5053129;28;20938;-41
2022/08/21 07:23:26;;;;;;;16.47;13.00;;;24.10;58.90;;;;;;5053145;28;20404;-42
2022/08/21 07:25:52;;;;;;;20.00;12.63;;;24.10;59.00;;;;;;5052777;28;20496;-42
2022/08/21 07:28:18;;;;;;;15.43;11.87;;;24.10;59.00;;;;;;5053138;28;20537;-41
2022/08/21 07:30:45;;;;;;;13.67;11.20;;;24.10;59.00;;;;;;5052870;28;20904;-41
2022/08/21 07:33:11;;;;;;;14.70;12.70;;;24.10;58.90;;;;;;5052898;28;20404;-42
2022/08/21 07:35:37;;;;;;;15.40;12.70;;;24.10;58.90;;;;;;5052544;28;20448;-42
2022/08/21 07:38:03;;;;;;;14.47;11.60;;;24.10;58.90;;;;;;5052881;28;20412;-43
2022/08/21 07:40:29;;;;;;;14.97;11.80;;;24.10;58.90;;;;;;5052746;28;20416;-42
2022/08/21 07:42:55;;;;;;;21.50;12.00;;;24.20;58.80;;;;;;5053084;28;20470;-42
2022/08/21 07:45:23;;;;;;;15.60;12.07;;;24.20;58.80;;;;;;5052551;28;20185;-42
2022/08/21 07:47:49;;;;;;;14.60;11.80;;;24.30;58.70;;;;;;5052403;28;20197;-41
2022/08/21 07:50:16;;;;;;;15.43;12.50;;;24.30;58.70;;;;;;5052661;28;20400;-42
2022/08/21 07:52:43;;;;;;;11.83;10.03;;;24.30;58.70;;;;;;5052594;28;20177;-42
2022/08/21 07:55:12;;;;;;;20.17;11.73;;;24.30;58.70;;;;;;5051810;28;20412;-42
2022/08/21 07:57:38;;;;;;;13.53;11.30;;;24.30;58.70;;;;;;5052217;28;20761;-42
2022/08/21 08:00:07;;;;;;;14.83;10.90;;;24.30;58.60;;;;;;5052486;28;20903;-41
2022/08/21 08:02:33;;;;;;;16.23;12.57;;;24.30;58.50;;;;;;5052698;28;20737;-42
2022/08/21 08:05:01;;;;;;;14.03;12.00;;;24.30;58.60;;;;;;5052310;28;20434;-41
2022/08/21 08:07:26;;;;;;;15.40;11.43;;;24.40;58.60;;;;;;5052333;28;20587;-42
2022/08/21 08:09:52;;;;;;;16.57;12.50;;;24.40;58.50;;;;;;5052336;28;20407;-42
2022/08/21 08:12:18;;;;;;;14.63;10.73;;;24.40;58.30;;;;;;5052306;28;20690;-41
2022/08/21 08:14:44;;;;;;;13.77;10.97;;;24.40;58.10;;;;;;5052166;28;20243;-42
2022/08/21 08:17:10;;;;;;;14.47;10.40;;;24.40;58.00;;;;;;5051989;28;20169;-41
2022/08/21 08:19:36;;;;;;;16.03;11.70;;;24.40;57.80;;;;;;5052224;28;20477;-41
2022/08/21 08:22:12;;;;;;;14.73;11.80;;;24.40;58.00;;;;;;5052432;28;20910;-42
2022/08/21 08:24:41;;;;;;;14.10;11.23;;;24.40;58.10;;;;;;5052149;28;20211;-41
2022/08/21 08:27:07;;;;;;;14.27;11.00;;;24.40;57.80;;;;;;5050598;28;20483;-42
2022/08/21 08:29:32;;;;;;;13.50;10.30;;;24.40;57.90;;;;;;5052066;28;20439;-42
2022/08/21 08:31:59;;;;;;;14.63;10.70;;;24.40;57.90;;;;;;5052066;28;20169;-42
2022/08/21 08:34:24;;;;;;;12.50;10.10;;;24.50;58.00;;;;;;5051865;28;20538;-41
2022/08/21 08:36:50;;;;;;;11.90;10.17;;;24.50;57.80;;;;;;5051831;28;20555;-41
2022/08/21 08:39:16;;;;;;;11.83;8.40;;;24.50;57.60;;;;;;5052074;28;20165;-42
2022/08/21 08:41:44;;;;;;;11.10;9.53;;;24.60;57.80;;;;;;5052141;28;20226;-41
2022/08/21 08:44:10;;;;;;;11.73;9.50;;;24.50;57.80;;;;;;5052000;28;20407;-42
2022/08/21 08:46:43;;;;;;;11.27;9.67;;;24.60;57.60;;;;;;5051788;28;20442;-42
2022/08/21 08:49:35;;;;;;;18.10;10.20;;;24.60;57.30;;;;;;5051940;28;20521;-42
2022/08/21 08:52:20;;;;;;;11.97;9.83;;;24.60;58.00;;;;;;5028228;28;20930;-42
2022/08/21 08:55:06;;;;;;;13.10;9.00;;;24.60;57.50;;;;;;5051802;28;20412;-42
2022/08/21 08:57:33;;;;;;;12.20;8.80;;;24.60;57.10;;;;;;5049905;28;20420;-42
2022/08/21 09:00:02;;;;;;;10.13;9.07;;;24.60;56.90;;;;;;5051650;28;20458;-43
2022/08/21 09:02:28;;;;;;;10.70;8.60;;;24.60;57.90;;;;;;5051590;28;20415;-42
2022/08/21 09:04:55;;;;;;;9.10;6.63;;;24.60;56.50;;;;;;5051578;28;20424;-42
2022/08/21 09:07:42;;;;;;;9.20;7.17;;;24.60;56.40;;;;;;5054061;28;20204;-42
2022/08/21 09:10:21;;;;;;;10.53;8.00;;;24.70;57.20;;;;;;5055943;28;20396;-42
2022/08/21 09:13:12;;;;;;;9.80;7.20;;;24.80;57.20;;;;;;5055522;28;20408;-42
2022/08/21 09:15:56;;;;;;;10.70;6.73;;;24.80;56.50;;;;;;5055579;28;20424;-42
2022/08/21 09:18:35;;;;;;;9.20;8.27;;;24.80;56.70;;;;;;5055560;28;20475;-42
2022/08/21 09:21:10;;;;;;;8.30;6.33;;;24.80;56.90;;;;;;5055519;28;20482;-42
2022/08/21 09:23:54;;;;;;;12.10;6.87;;;24.80;56.80;;;;;;5055520;28;20431;-43
2022/08/21 09:26:24;;;;;;;10.43;5.87;;;24.90;56.70;;;;;;5058792;22;20582;-43
2022/08/21 09:28:57;;;;;;;6.53;4.97;;;24.90;56.20;;;;;;5055199;28;20542;-42
2022/08/21 09:31:26;;;;;;;6.80;4.30;;;24.90;56.50;;;;;;5055525;28;20477;-44
2022/08/21 09:34:04;;;;;;;6.93;5.30;;;24.90;55.40;;;;;;5055218;28;20406;-44
2022/08/21 09:36:38;;;;;;;7.10;6.23;;;24.90;55.40;;;;;;5055026;28;20422;-44
2022/08/21 09:39:06;;;;;;;10.30;5.20;;;25.00;55.40;;;;;;5055124;28;20396;-44
2022/08/21 09:41:35;;;;;;;6.57;4.20;;;25.00;55.20;;;;;;5055057;28;20466;-44
2022/08/21 09:44:02;;;;;;;5.93;4.43;;;25.10;54.70;;;;;;5054877;28;20424;-44
2022/08/21 09:46:28;;;;;;;7.20;4.40;;;25.10;54.40;;;;;;5054781;28;20439;-43
2022/08/21 09:49:02;;;;;;;6.67;5.00;;;25.10;54.80;;;;;;5054897;28;20451;-43
2022/08/21 09:51:31;;;;;;;5.53;4.20;;;25.10;53.90;;;;;;5054942;28;20403;-43
2022/08/21 09:54:07;;;;;;;5.17;3.70;;;25.10;53.80;;;;;;5054957;28;20400;-43
2022/08/21 09:59:39;;;;;;;6.60;3.03;;;25.10;53.20;;;;;;5054746;28;20374;-41
2022/08/21 10:02:25;;;;;;;6.30;4.43;;;25.00;54.00;;;;;;5054719;28;20422;-43
2022/08/21 10:05:00;;;;;;;4.70;2.90;;;25.00;53.30;;;;;;5054660;28;20457;-44
2022/08/21 10:07:28;;;;;;;6.80;3.97;;;25.00;53.50;;;;;;5054344;28;20447;-44
2022/08/21 10:10:04;;;;;;;7.60;3.93;;;25.00;53.60;;;;;;5054530;28;20490;-42
2022/08/21 10:12:58;;;;;;;4.50;3.00;;;25.10;53.10;;;;;;5054469;28;20408;-43
2022/08/21 10:15:45;;;;;;;6.27;3.33;;;25.10;52.90;;;;;;5054228;28;20470;-43
2022/08/21 10:18:49;;;;;;;3.63;2.90;;;25.10;52.50;;;;;;5053548;28;20403;-42
2022/08/21 10:21:28;;;;;;;3.60;2.57;;;25.10;52.10;;;;;;5054351;28;20398;-43
2022/08/21 10:24:27;;;;;;;4.13;3.40;;;25.00;52.10;;;;;;5054273;28;20384;-42
2022/08/21 10:27:15;;;;;;;9.50;3.60;;;25.10;52.00;;;;;;5053763;28;20444;-43
2022/08/21 10:30:03;;;;;;;5.47;2.87;;;25.10;52.00;;;;;;5054105;28;20404;-43
2022/08/21 10:32:43;;;;;;;5.83;2.83;;;25.10;51.00;;;;;;5054142;28;20396;-42
2022/08/21 10:35:13;;;;;;;3.23;2.13;;;25.10;50.60;;;;;;5054000;28;20380;-43
2022/08/21 10:37:56;;;;;;;5.13;3.00;;;25.20;51.30;;;;;;5054057;28;20446;-43
2022/08/21 10:40:54;;;;;;;4.30;2.73;;;25.20;50.50;;;;;;5054007;28;20392;-42
2022/08/21 10:43:53;;;;;;;6.90;3.20;;;25.20;50.40;;;;;;5054061;28;21015;-46
2022/08/21 10:47:05;;;;;;;5.37;3.00;;;25.20;50.20;;;;;;5035699;28;20435;-44
2022/08/21 10:50:00;;;;;;;3.97;2.50;;;25.20;49.50;;;;;;5045735;28;20484;-43
2022/08/21 10:53:08;;;;;;;3.13;2.23;;;25.30;49.90;;;;;;5053749;28;20388;-42
2022/08/21 10:55:40;;;;;;;5.57;3.23;;;25.20;49.50;;;;;;5053105;28;20422;-44
2022/08/21 10:58:28;;;;;;;5.23;3.47;;;25.20;49.60;;;;;;5053659;28;21055;-44
2022/08/21 11:01:24;;;;;;;3.87;2.30;;;25.20;49.50;;;;;;5053500;28;20407;-43
2022/08/21 11:04:23;;;;;;;5.27;2.27;;;25.30;49.50;;;;;;5053565;28;20380;-44
2022/08/21 11:07:19;;;;;;;4.40;2.77;;;25.30;49.10;;;;;;5037907;28;20514;-43
2022/08/21 11:09:48;;;;;;;3.60;2.30;;;25.30;48.90;;;;;;5053742;28;20400;-43
2022/08/21 11:12:44;;;;;;;6.33;3.30;;;25.30;49.10;;;;;;5053294;28;20388;-43
2022/08/21 11:15:34;;;;;;;3.67;2.27;;;25.50;49.30;;;;;;5052522;28;20408;-43
2022/08/21 11:18:18;;;;;;;6.80;2.83;;;25.60;48.90;;;;;;5053319;28;20388;-44
2022/08/21 11:21:15;;;;;;;3.87;2.50;;;25.60;48.00;;;;;;5053216;28;20732;-44
2022/08/21 11:23:44;;;;;;;4.63;2.03;;;25.60;47.90;;;;;;5053226;28;20418;-43
2022/08/21 11:26:54;;;;;;;10.20;3.97;;;25.70;48.00;;;;;;5052600;28;20493;-44
2022/08/21 11:29:26;;;;;;;6.23;3.00;;;25.80;46.80;;;;;;4972046;28;20842;-43
2022/08/21 11:32:13;;;;;;;3.83;2.00;;;25.90;46.60;;;;;;4972212;28;20470;-41
2022/08/21 11:34:58;;;;;;;5.27;3.10;;;25.90;46.40;;;;;;4972090;28;20414;-42
2022/08/21 11:37:55;;;;;;;3.20;2.27;;;26.10;46.90;;;;;;4971912;28;20879;-42
2022/08/21 11:41:01;;;;;;;3.70;2.63;;;26.30;46.60;;;;;;4971941;28;20607;-43
2022/08/21 11:43:42;;;;;;;5.77;2.73;;;26.40;46.20;;;;;;4933496;29;20421;-43
2022/08/21 11:46:47;;;;;;;5.90;2.70;;;26.50;45.20;;;;;;4933033;29;20969;-42
2022/08/21 11:49:30;;;;;;;3.93;2.10;;;26.70;44.30;;;;;;4933257;29;20522;-42
2022/08/21 11:52:03;;;;;;;2.87;1.43;;;26.80;43.40;;;;;;4933366;29;20405;-42
2022/08/21 11:54:46;;;;;;;3.50;1.67;;;26.80;43.00;;;;;;4933140;29;20500;-42
2022/08/21 11:57:32;;;;;;;6.53;1.87;;;26.90;41.10;;;;;;4932727;29;20424;-41
2022/08/21 12:00:13;;;;;;;2.80;1.77;;;27.00;42.80;;;;;;4961007;28;20454;-43
2022/08/21 12:02:47;;;;;;;3.60;1.97;;;27.10;42.40;;;;;;4991024;28;20941;-42
2022/08/21 12:05:31;;;;;;;2.87;1.53;;;27.30;42.80;;;;;;4990808;28;20405;-42
2022/08/21 12:08:06;;;;;;;4.93;2.20;;;27.30;41.60;;;;;;4990685;28;20450;-41
2022/08/21 12:10:43;;;;;;;3.90;1.90;;;27.40;41.30;;;;;;4990698;28;20391;-41
2022/08/21 12:13:29;;;;;;;9.00;2.00;;;27.50;40.90;;;;;;4993629;28;20402;-43
2022/08/21 12:16:27;;;;;;;4.73;1.77;;;27.50;39.30;;;;;;5051954;28;20510;-42
2022/08/21 12:19:08;;;;;;;4.23;1.90;;;27.60;40.00;;;;;;5052162;28;20411;-42
2022/08/21 12:21:47;;;;;;;3.37;1.47;;;27.60;39.40;;;;;;5052634;28;20431;-44
2022/08/21 12:24:13;;;;;;;10.67;2.00;;;27.70;39.60;;;;;;5052570;28;20403;-42
2022/08/21 12:26:50;;;;;;;3.27;1.77;;;27.90;38.30;;;;;;5051804;28;20459;-43
2022/08/21 12:29:32;;;;;;;4.23;1.50;;;28.00;38.40;;;;;;5052207;28;20314;-42
2022/08/21 12:32:09;;;;;;;3.60;2.40;;;28.20;38.80;;;;;;5051991;28;20384;-44
2022/08/21 12:35:06;;;;;;;3.40;2.03;;;28.40;39.10;;;;;;5051911;28;20391;-43
2022/08/21 12:37:40;;;;;;;4.70;1.60;;;28.50;37.40;;;;;;5046005;28;20455;-43
2022/08/21 12:40:17;;;;;;;4.40;1.50;;;28.50;38.10;;;;;;5051894;28;20392;-44
2022/08/21 12:42:49;;;;;;;2.60;1.70;;;28.50;37.50;;;;;;5051296;28;20458;-43
2022/08/21 12:45:40;;;;;;;4.37;1.87;;;28.60;37.30;;;;;;5051714;28;20923;-42
2022/08/21 12:48:19;;;;;;;4.17;1.70;;;28.50;37.00;;;;;;5051799;28;20479;-43
2022/08/21 12:50:56;;;;;;;4.53;1.60;;;28.40;37.00;;;;;;5051924;28;20450;-42
2022/08/21 12:53:28;;;;;;;3.70;1.73;;;28.40;35.80;;;;;;5051781;28;20499;-42
2022/08/21 12:55:59;;;;;;;3.23;1.60;;;28.50;37.60;;;;;;5051723;28;20423;-43
2022/08/21 12:58:26;;;;;;;2.73;1.33;;;28.50;36.00;;;;;;5051764;28;20779;-43
2022/08/21 13:01:46;;;;;;;2.83;1.43;;;28.50;36.10;;;;;;5051710;28;20411;-43